Port Rexton, Canada
Current Conditions -  °F | °C
As of 4:47 PM on Thursday 30 Oct 2014 (Local Time) from CYYT Reporting Station
Rain Showers Rain Showers  
Wind Chill: 59°   Ceiling: 1200
Heat Index: 59°   Visibility: 12mi
Dew Point: 57°   Wind: 22mph
Humidity: 94%   Direction: 230°SW
Pressure: 29.7"   Gusts: 30mph
Location:  48.4°N, 53.35°W
Report Text: CYYT 301847Z 23019G26KT 12SM SHRA BKN012 OVC035 15/14 A2970 RMK SC5SC3 SLP062 DENSITY ALT 700FT
Loading
Personal Weather Stations






























Interactive Weather Map
Tropical Storm Tracking
New forecast layout! Learn more

10-Day Weather Forecast

Advertisements
Track Severe Weather on mobile